sim
Sign-in with your pilot id or email,
or register
Callsign
Passwort

Schedule Details

Flight Number: OEO4073
Departure: Gothenburg Landvetter Airport (ESGG) at 16:20
Arrival: Munich Airport (EDDM) at 18:20

Weather Information
Getting current METAR information for ESGG 190920Z VRB02KT 9999 BKN006 14/13 Q1024
Getting current METAR information for EDDM 190920Z 08007KT 040V110 CAVOK 16/09 Q1020 NOSIG

Schedule Frequency

Route Map